East Thetford, VT (05043)

12:06 PM EDT on October 22, 2014 (GMT -0400)
Bill's Place | Change Station
CLOSE
Current Station
Personal Weather Station
Location: Orford, NH
Elevation: 407 ft
Nearby Weather Stations

Elev 407 ft 43.90 °N, 72.14 °W | Updated 5 seconds ago

Overcast
Overcast
51.8 °F
Feels Like 51.8 °F
N
0.0
Wind Variable Wind from NE
Gusts 0.0 mph

Today
High -- | Low -- °F
--% Chance of Precip.
Yesterday
High -- | Low -- °F
Precip. -- in
7:11 AM 5:53 PM
Waning Crescent, 2% visible
Pressure 30.12 in
Visibility 7.0 miles
Clouds Few 700 ft
Mostly Cloudy 2400 ft
Overcast 3000 ft
Dew Point 49 °F
Humidity 90%
Rainfall 0.07 in
Snow Depth Not available.
UV 1 out of 12
Pollen .10 out of 12
PM2.5 Good
Flu Activity Sporadic
METAR KLEB 221553Z 02005KT 7SM -RA FEW007 BKN024 OVC030 11/08 A3012 RMK AO2 RAB01E36B43 SLP199 P0002 T01060083

More Conditions Fewer Conditions

Pressure 30.12 in
Visibility 7.0 miles
Clouds Few 700 ft
Mostly Cloudy 2400 ft
Overcast 3000 ft
Dew Point 49 °F
Humidity 90%
Rainfall 0.07 in
Snow Depth Not available.
UV 1 out of 12
Pollen .10 out of 12
PM2.5 Good
Flu Activity Sporadic
METAR KLEB 221553Z 02005KT 7SM -RA FEW007 BKN024 OVC030 11/08 A3012 RMK AO2 RAB01E36B43 SLP199 P0002 T01060083

More Conditions Fewer Conditions

10-Day Weather Forecast

Almanac

Astronomy

Oct. 22, 2014 Rise Set
Actual Time 7:11 AM EDT 5:53 PM EDT
Civil Twilight 6:42 AM EDT 6:23 PM EDT
Nautical Twilight 6:08 AM EDT 6:56 PM EDT
Astronomical Twilight 5:35 AM EDT 7:29 PM EDT
Moon 5:47 AM EDT 5:20 PM EDT
Length of Visible Light 11h 40m
Length of Day
10h 42m
Tomorrow will be 2m 49s shorter.
Waning Crescent, 2% of the Moon is Illuminated
Today
Waning Crescent
Oct 23
New
Oct 30
First Quarter
Nov 6
Full
Nov 14
Last Quarter

Today's Extremes

State Highs State Lows

Community

WunderPhotos

Upload Photos

1,763,956 photos uploaded!

Nearby

Air Quality

  Air Quality AQ Index Pollutant
Yesterday Good
PM2.5
Yesterday Good
OZONE
Current Good
PM2.5
Wednesday Good
PM2.5

Snow Depth

Station Depth Elevation
No new snow has been reported.

Earthquake Activity

City Distance Mag. Time & Date
No recent earthquake activity has been reported nearby.
Minimum magnitude displayed is 2.5.

Coastal Water Temperatures

Place Temperature
No Stations Reporting

Nearby Weather Stations